sensor_id;sensor_type;location;lat;lon;timestamp;temperature;humidity
66710;DHT22;53624;0.000;0.000;2023-05-28T00:01:09;23.30;97.20
66710;DHT22;53624;0.000;0.000;2023-05-28T00:03:37;23.30;97.20
66710;DHT22;53624;0.000;0.000;2023-05-28T00:06:05;23.20;97.20
66710;DHT22;53624;0.000;0.000;2023-05-28T00:08:32;23.20;97.20
66710;DHT22;53624;0.000;0.000;2023-05-28T00:10:59;23.20;97.20
66710;DHT22;53624;0.000;0.000;2023-05-28T00:13:27;23.20;97.20
66710;DHT22;53624;0.000;0.000;2023-05-28T00:15:55;23.10;97.20
66710;DHT22;53624;0.000;0.000;2023-05-28T00:18:23;23.10;97.20
66710;DHT22;53624;0.000;0.000;2023-05-28T00:20:51;23.10;97.20
66710;DHT22;53624;0.000;0.000;2023-05-28T00:23:18;23.10;97.20
66710;DHT22;53624;0.000;0.000;2023-05-28T00:25:46;23.10;97.30
66710;DHT22;53624;0.000;0.000;2023-05-28T00:28:14;23.10;97.20
66710;DHT22;53624;0.000;0.000;2023-05-28T00:30:41;23.00;97.20
66710;DHT22;53624;0.000;0.000;2023-05-28T00:33:09;23.00;97.20
66710;DHT22;53624;0.000;0.000;2023-05-28T00:35:38;23.00;97.20
66710;DHT22;53624;0.000;0.000;2023-05-28T00:38:06;23.00;97.30
66710;DHT22;53624;0.000;0.000;2023-05-28T00:40:33;23.00;97.20
66710;DHT22;53624;0.000;0.000;2023-05-28T00:43:01;22.90;97.20
66710;DHT22;53624;0.000;0.000;2023-05-28T00:45:28;22.90;97.20
66710;DHT22;53624;0.000;0.000;2023-05-28T00:47:56;22.90;97.20
66710;DHT22;53624;0.000;0.000;2023-05-28T00:50:23;22.90;97.20
66710;DHT22;53624;0.000;0.000;2023-05-28T00:52:53;22.90;97.40
66710;DHT22;53624;0.000;0.000;2023-05-28T00:55:20;22.90;97.20
66710;DHT22;53624;0.000;0.000;2023-05-28T00:57:48;22.90;97.20
66710;DHT22;53624;0.000;0.000;2023-05-28T01:00:19;22.80;97.10
66710;DHT22;53624;0.000;0.000;2023-05-28T01:02:47;22.80;97.20
66710;DHT22;53624;0.000;0.000;2023-05-28T01:05:14;22.80;97.20
66710;DHT22;53624;0.000;0.000;2023-05-28T01:07:43;22.80;97.20
66710;DHT22;53624;0.000;0.000;2023-05-28T01:10:12;22.80;97.20
66710;DHT22;53624;0.000;0.000;2023-05-28T01:12:39;22.70;97.10
66710;DHT22;53624;0.000;0.000;2023-05-28T01:15:08;22.70;97.10
66710;DHT22;53624;0.000;0.000;2023-05-28T01:17:36;22.70;97.10
66710;DHT22;53624;0.000;0.000;2023-05-28T01:20:05;22.70;97.10
66710;DHT22;53624;0.000;0.000;2023-05-28T01:22:37;22.70;97.10
66710;DHT22;53624;0.000;0.000;2023-05-28T01:25:07;22.60;97.10
66710;DHT22;53624;0.000;0.000;2023-05-28T01:27:37;22.70;97.10
66710;DHT22;53624;0.000;0.000;2023-05-28T01:30:05;22.60;97.10
66710;DHT22;53624;0.000;0.000;2023-05-28T01:32:36;22.60;97.10
66710;DHT22;53624;0.000;0.000;2023-05-28T01:35:04;22.60;97.10
66710;DHT22;53624;0.000;0.000;2023-05-28T01:37:33;22.60;97.10
66710;DHT22;53624;0.000;0.000;2023-05-28T01:40:02;22.60;97.20
66710;DHT22;53624;0.000;0.000;2023-05-28T01:42:31;22.50;97.10
66710;DHT22;53624;0.000;0.000;2023-05-28T01:45:00;22.50;97.00
66710;DHT22;53624;0.000;0.000;2023-05-28T01:47:33;22.50;97.20
66710;DHT22;53624;0.000;0.000;2023-05-28T01:50:02;22.50;97.10
66710;DHT22;53624;0.000;0.000;2023-05-28T01:52:31;22.50;97.20
66710;DHT22;53624;0.000;0.000;2023-05-28T01:54:58;22.50;97.10
66710;DHT22;53624;0.000;0.000;2023-05-28T01:57:26;22.50;97.10
66710;DHT22;53624;0.000;0.000;2023-05-28T01:59:54;22.40;97.10
66710;DHT22;53624;0.000;0.000;2023-05-28T02:02:23;22.40;97.10
66710;DHT22;53624;0.000;0.000;2023-05-28T02:04:52;22.40;97.20
66710;DHT22;53624;0.000;0.000;2023-05-28T02:07:21;22.40;97.10
66710;DHT22;53624;0.000;0.000;2023-05-28T02:09:49;22.40;97.10
66710;DHT22;53624;0.000;0.000;2023-05-28T02:12:17;22.40;97.20
66710;DHT22;53624;0.000;0.000;2023-05-28T02:14:44;22.40;97.20
66710;DHT22;53624;0.000;0.000;2023-05-28T02:17:13;22.30;97.10
66710;DHT22;53624;0.000;0.000;2023-05-28T02:19:43;22.30;97.20
66710;DHT22;53624;0.000;0.000;2023-05-28T02:22:10;22.30;97.20
66710;DHT22;53624;0.000;0.000;2023-05-28T02:24:38;22.30;97.10
66710;DHT22;53624;0.000;0.000;2023-05-28T02:27:06;22.30;97.10
66710;DHT22;53624;0.000;0.000;2023-05-28T02:29:33;22.30;97.10
66710;DHT22;53624;0.000;0.000;2023-05-28T02:32:01;22.30;97.10
66710;DHT22;53624;0.000;0.000;2023-05-28T02:34:30;22.30;97.20
66710;DHT22;53624;0.000;0.000;2023-05-28T02:36:58;22.20;97.10
66710;DHT22;53624;0.000;0.000;2023-05-28T02:39:27;22.20;97.10
66710;DHT22;53624;0.000;0.000;2023-05-28T02:41:55;22.20;97.10
66710;DHT22;53624;0.000;0.000;2023-05-28T02:44:23;22.20;97.10
66710;DHT22;53624;0.000;0.000;2023-05-28T02:46:50;22.20;97.10
66710;DHT22;53624;0.000;0.000;2023-05-28T02:49:18;22.20;97.10
66710;DHT22;53624;0.000;0.000;2023-05-28T02:51:48;22.20;97.10
66710;DHT22;53624;0.000;0.000;2023-05-28T02:54:38;22.20;97.10
66710;DHT22;53624;0.000;0.000;2023-05-28T02:57:05;22.20;97.10
66710;DHT22;53624;0.000;0.000;2023-05-28T02:59:33;22.10;97.10
66710;DHT22;53624;0.000;0.000;2023-05-28T03:02:00;22.10;97.10
66710;DHT22;53624;0.000;0.000;2023-05-28T03:04:28;22.10;97.10
66710;DHT22;53624;0.000;0.000;2023-05-28T03:06:57;22.10;97.10
66710;DHT22;53624;0.000;0.000;2023-05-28T03:09:24;22.10;97.10
66710;DHT22;53624;0.000;0.000;2023-05-28T03:11:53;22.10;97.10
66710;DHT22;53624;0.000;0.000;2023-05-28T03:14:21;22.10;97.10
66710;DHT22;53624;0.000;0.000;2023-05-28T03:16:48;22.10;97.10
66710;DHT22;53624;0.000;0.000;2023-05-28T03:19:23;22.00;97.10
66710;DHT22;53624;0.000;0.000;2023-05-28T03:21:51;22.00;97.10
66710;DHT22;53624;0.000;0.000;2023-05-28T03:24:22;22.00;97.10
66710;DHT22;53624;0.000;0.000;2023-05-28T03:26:52;22.00;97.10
66710;DHT22;53624;0.000;0.000;2023-05-28T03:29:22;22.00;97.40
66710;DHT22;53624;0.000;0.000;2023-05-28T03:32:05;22.00;97.10
66710;DHT22;53624;0.000;0.000;2023-05-28T03:34:32;21.90;97.10
66710;DHT22;53624;0.000;0.000;2023-05-28T03:37:01;21.90;97.10
66710;DHT22;53624;0.000;0.000;2023-05-28T03:39:31;21.90;97.10
66710;DHT22;53624;0.000;0.000;2023-05-28T03:41:59;21.90;97.10
66710;DHT22;53624;0.000;0.000;2023-05-28T03:44:29;21.90;97.10
66710;DHT22;53624;0.000;0.000;2023-05-28T03:46:57;21.90;97.10
66710;DHT22;53624;0.000;0.000;2023-05-28T03:49:24;21.90;97.10
66710;DHT22;53624;0.000;0.000;2023-05-28T03:51:53;21.90;97.10
66710;DHT22;53624;0.000;0.000;2023-05-28T03:54:21;21.90;97.10
66710;DHT22;53624;0.000;0.000;2023-05-28T03:56:50;21.90;97.10
66710;DHT22;53624;0.000;0.000;2023-05-28T03:59:17;21.80;97.10
66710;DHT22;53624;0.000;0.000;2023-05-28T04:01:45;21.80;97.10
66710;DHT22;53624;0.000;0.000;2023-05-28T04:04:13;21.80;97.00
66710;DHT22;53624;0.000;0.000;2023-05-28T04:06:41;21.80;97.10
66710;DHT22;53624;0.000;0.000;2023-05-28T04:09:08;21.80;97.10
66710;DHT22;53624;0.000;0.000;2023-05-28T04:11:36;21.80;97.10
66710;DHT22;53624;0.000;0.000;2023-05-28T04:14:12;21.80;97.10
66710;DHT22;53624;0.000;0.000;2023-05-28T04:16:40;21.80;97.10
66710;DHT22;53624;0.000;0.000;2023-05-28T04:19:07;21.80;97.10
66710;DHT22;53624;0.000;0.000;2023-05-28T04:21:35;21.80;97.10
66710;DHT22;53624;0.000;0.000;2023-05-28T04:24:02;21.80;97.10
66710;DHT22;53624;0.000;0.000;2023-05-28T04:26:31;21.80;97.10
66710;DHT22;53624;0.000;0.000;2023-05-28T04:28:59;21.80;97.10
66710;DHT22;53624;0.000;0.000;2023-05-28T04:31:29;21.80;97.10
66710;DHT22;53624;0.000;0.000;2023-05-28T04:33:57;21.80;97.10
66710;DHT22;53624;0.000;0.000;2023-05-28T04:36:25;21.80;97.10
66710;DHT22;53624;0.000;0.000;2023-05-28T04:38:55;21.80;97.10
66710;DHT22;53624;0.000;0.000;2023-05-28T04:41:28;21.80;97.10
66710;DHT22;53624;0.000;0.000;2023-05-28T04:43:57;21.80;97.10
66710;DHT22;53624;0.000;0.000;2023-05-28T04:46:25;21.80;97.10
66710;DHT22;53624;0.000;0.000;2023-05-28T04:48:57;21.80;97.10
66710;DHT22;53624;0.000;0.000;2023-05-28T04:51:24;21.90;97.10
66710;DHT22;53624;0.000;0.000;2023-05-28T04:53:51;21.90;97.00
66710;DHT22;53624;0.000;0.000;2023-05-28T04:56:19;21.90;97.00
66710;DHT22;53624;0.000;0.000;2023-05-28T04:58:47;21.90;97.10
66710;DHT22;53624;0.000;0.000;2023-05-28T05:01:14;21.90;97.40
66710;DHT22;53624;0.000;0.000;2023-05-28T05:03:42;21.90;97.10
66710;DHT22;53624;0.000;0.000;2023-05-28T05:06:12;21.90;97.10
66710;DHT22;53624;0.000;0.000;2023-05-28T05:08:39;21.90;97.10
66710;DHT22;53624;0.000;0.000;2023-05-28T05:11:08;21.90;97.10
66710;DHT22;53624;0.000;0.000;2023-05-28T05:13:36;21.90;97.10
66710;DHT22;53624;0.000;0.000;2023-05-28T05:16:04;22.00;97.10
66710;DHT22;53624;0.000;0.000;2023-05-28T05:18:31;22.00;97.10
66710;DHT22;53624;0.000;0.000;2023-05-28T05:20:59;22.00;97.20
66710;DHT22;53624;0.000;0.000;2023-05-28T05:23:28;22.00;97.20
66710;DHT22;53624;0.000;0.000;2023-05-28T05:25:55;22.00;97.10
66710;DHT22;53624;0.000;0.000;2023-05-28T05:28:23;22.00;97.10
66710;DHT22;53624;0.000;0.000;2023-05-28T05:30:50;22.10;97.10
66710;DHT22;53624;0.000;0.000;2023-05-28T05:33:18;22.10;97.20
66710;DHT22;53624;0.000;0.000;2023-05-28T05:36:04;22.10;97.00
66710;DHT22;53624;0.000;0.000;2023-05-28T05:38:54;22.20;97.00
66710;DHT22;53624;0.000;0.000;2023-05-28T05:41:40;22.20;96.90
66710;DHT22;53624;0.000;0.000;2023-05-28T05:44:13;22.20;96.90
66710;DHT22;53624;0.000;0.000;2023-05-28T05:46:40;22.30;96.90
66710;DHT22;53624;0.000;0.000;2023-05-28T05:49:08;22.30;96.90
66710;DHT22;53624;0.000;0.000;2023-05-28T05:51:35;22.40;96.90
66710;DHT22;53624;0.000;0.000;2023-05-28T05:54:05;22.50;96.80
66710;DHT22;53624;0.000;0.000;2023-05-28T05:56:32;22.60;96.70
66710;DHT22;53624;0.000;0.000;2023-05-28T05:59:00;22.70;96.50
66710;DHT22;53624;0.000;0.000;2023-05-28T06:01:27;22.80;96.40
66710;DHT22;53624;0.000;0.000;2023-05-28T06:03:56;22.90;96.30
66710;DHT22;53624;0.000;0.000;2023-05-28T06:06:42;23.10;96.10
66710;DHT22;53624;0.000;0.000;2023-05-28T06:09:30;23.20;95.90
66710;DHT22;53624;0.000;0.000;2023-05-28T06:12:04;23.40;95.70
66710;DHT22;53624;0.000;0.000;2023-05-28T06:14:32;23.50;95.50
66710;DHT22;53624;0.000;0.000;2023-05-28T06:17:00;23.70;95.30
66710;DHT22;53624;0.000;0.000;2023-05-28T06:19:27;23.90;95.00
66710;DHT22;53624;0.000;0.000;2023-05-28T06:21:56;24.00;94.80
66710;DHT22;53624;0.000;0.000;2023-05-28T06:24:24;24.20;94.60
66710;DHT22;53624;0.000;0.000;2023-05-28T06:26:52;24.30;94.40
66710;DHT22;53624;0.000;0.000;2023-05-28T06:29:20;24.50;94.20
66710;DHT22;53624;0.000;0.000;2023-05-28T06:31:47;24.70;94.00
66710;DHT22;53624;0.000;0.000;2023-05-28T06:34:16;24.80;93.80
66710;DHT22;53624;0.000;0.000;2023-05-28T06:36:43;25.00;93.60
66710;DHT22;53624;0.000;0.000;2023-05-28T06:39:11;25.20;93.40
66710;DHT22;53624;0.000;0.000;2023-05-28T06:41:40;25.50;93.00
66710;DHT22;53624;0.000;0.000;2023-05-28T06:44:19;25.90;92.60
66710;DHT22;53624;0.000;0.000;2023-05-28T06:46:55;26.20;92.10
66710;DHT22;53624;0.000;0.000;2023-05-28T06:49:22;26.50;91.70
66710;DHT22;53624;0.000;0.000;2023-05-28T06:51:50;26.70;91.50
66710;DHT22;53624;0.000;0.000;2023-05-28T06:54:18;26.80;91.20
66710;DHT22;53624;0.000;0.000;2023-05-28T06:56:46;27.00;91.10
66710;DHT22;53624;0.000;0.000;2023-05-28T06:59:45;27.20;90.90
66710;DHT22;53624;0.000;0.000;2023-05-28T07:02:44;27.30;90.70
66710;DHT22;53624;0.000;0.000;2023-05-28T07:05:50;27.40;90.70
66710;DHT22;53624;0.000;0.000;2023-05-28T07:08:18;27.50;90.50
66710;DHT22;53624;0.000;0.000;2023-05-28T07:10:45;27.70;90.40
66710;DHT22;53624;0.000;0.000;2023-05-28T07:13:14;27.80;90.10
66710;DHT22;53624;0.000;0.000;2023-05-28T07:15:43;28.00;90.00
66710;DHT22;53624;0.000;0.000;2023-05-28T07:18:10;28.20;89.50
66710;DHT22;53624;0.000;0.000;2023-05-28T07:20:38;28.50;88.90
66710;DHT22;53624;0.000;0.000;2023-05-28T07:23:18;28.80;88.40
66710;DHT22;53624;0.000;0.000;2023-05-28T07:25:46;29.10;87.70
66710;DHT22;53624;0.000;0.000;2023-05-28T07:28:13;29.30;87.20
66710;DHT22;53624;0.000;0.000;2023-05-28T07:30:42;29.60;86.50
66710;DHT22;53624;0.000;0.000;2023-05-28T07:33:11;29.80;85.80
66710;DHT22;53624;0.000;0.000;2023-05-28T07:35:38;30.10;85.30
66710;DHT22;53624;0.000;0.000;2023-05-28T07:38:06;30.30;84.70
66710;DHT22;53624;0.000;0.000;2023-05-28T07:40:36;30.60;84.10
66710;DHT22;53624;0.000;0.000;2023-05-28T07:43:20;30.80;83.50
66710;DHT22;53624;0.000;0.000;2023-05-28T07:45:51;31.10;83.00
66710;DHT22;53624;0.000;0.000;2023-05-28T07:48:19;31.30;82.50
66710;DHT22;53624;0.000;0.000;2023-05-28T07:50:57;31.50;82.20
66710;DHT22;53624;0.000;0.000;2023-05-28T07:53:38;31.50;81.80
66710;DHT22;53624;0.000;0.000;2023-05-28T07:56:09;31.10;82.40
66710;DHT22;53624;0.000;0.000;2023-05-28T07:58:38;30.80;84.20
66710;DHT22;53624;0.000;0.000;2023-05-28T08:01:07;30.60;84.40
66710;DHT22;53624;0.000;0.000;2023-05-28T08:03:38;30.40;84.90
66710;DHT22;53624;0.000;0.000;2023-05-28T08:06:06;30.40;85.20
66710;DHT22;53624;0.000;0.000;2023-05-28T08:08:36;30.40;85.20
66710;DHT22;53624;0.000;0.000;2023-05-28T08:11:04;30.60;85.30
66710;DHT22;53624;0.000;0.000;2023-05-28T08:13:31;30.60;85.10
66710;DHT22;53624;0.000;0.000;2023-05-28T08:16:02;30.70;85.00
66710;DHT22;53624;0.000;0.000;2023-05-28T08:18:41;30.70;85.20
66710;DHT22;53624;0.000;0.000;2023-05-28T08:21:08;30.80;85.20
66710;DHT22;53624;0.000;0.000;2023-05-28T08:23:37;30.90;85.00
66710;DHT22;53624;0.000;0.000;2023-05-28T08:26:08;31.00;85.00
66710;DHT22;53624;0.000;0.000;2023-05-28T08:28:36;31.00;84.90
66710;DHT22;53624;0.000;0.000;2023-05-28T08:31:03;31.10;84.80
66710;DHT22;53624;0.000;0.000;2023-05-28T08:33:45;31.20;84.80
66710;DHT22;53624;0.000;0.000;2023-05-28T08:36:13;31.20;84.70
66710;DHT22;53624;0.000;0.000;2023-05-28T08:38:42;31.30;84.80
66710;DHT22;53624;0.000;0.000;2023-05-28T08:41:10;31.40;84.60
66710;DHT22;53624;0.000;0.000;2023-05-28T08:43:38;31.50;84.60
66710;DHT22;53624;0.000;0.000;2023-05-28T08:46:05;31.50;84.60
66710;DHT22;53624;0.000;0.000;2023-05-28T08:48:40;31.50;84.60
66710;DHT22;53624;0.000;0.000;2023-05-28T08:51:09;31.60;84.60
66710;DHT22;53624;0.000;0.000;2023-05-28T08:53:43;31.70;84.60
66710;DHT22;53624;0.000;0.000;2023-05-28T08:56:10;31.80;84.60
66710;DHT22;53624;0.000;0.000;2023-05-28T08:58:39;31.80;84.50
66710;DHT22;53624;0.000;0.000;2023-05-28T09:01:07;31.90;84.50
66710;DHT22;53624;0.000;0.000;2023-05-28T09:03:43;31.90;84.40
66710;DHT22;53624;0.000;0.000;2023-05-28T09:06:21;31.90;84.40
66710;DHT22;53624;0.000;0.000;2023-05-28T09:08:51;32.00;84.50
66710;DHT22;53624;0.000;0.000;2023-05-28T09:11:33;31.90;84.70
66710;DHT22;53624;0.000;0.000;2023-05-28T09:14:07;31.90;84.90
66710;DHT22;53624;0.000;0.000;2023-05-28T09:16:39;31.80;85.10
66710;DHT22;53624;0.000;0.000;2023-05-28T09:19:09;31.90;85.10
66710;DHT22;53624;0.000;0.000;2023-05-28T09:21:40;32.00;84.90
66710;DHT22;53624;0.000;0.000;2023-05-28T09:24:18;32.00;84.80
66710;DHT22;53624;0.000;0.000;2023-05-28T09:27:21;32.10;84.80
66710;DHT22;53624;0.000;0.000;2023-05-28T09:29:49;32.20;84.80
66710;DHT22;53624;0.000;0.000;2023-05-28T09:32:17;32.20;84.80
66710;DHT22;53624;0.000;0.000;2023-05-28T09:34:46;32.20;84.80
66710;DHT22;53624;0.000;0.000;2023-05-28T09:37:15;32.20;84.80
66710;DHT22;53624;0.000;0.000;2023-05-28T09:39:42;32.20;84.80
66710;DHT22;53624;0.000;0.000;2023-05-28T09:42:10;32.20;84.80
66710;DHT22;53624;0.000;0.000;2023-05-28T09:44:39;32.20;84.80
66710;DHT22;53624;0.000;0.000;2023-05-28T09:47:14;32.30;84.80
66710;DHT22;53624;0.000;0.000;2023-05-28T09:49:42;32.30;84.80
66710;DHT22;53624;0.000;0.000;2023-05-28T09:52:12;32.30;84.90
66710;DHT22;53624;0.000;0.000;2023-05-28T09:54:43;32.30;84.90
66710;DHT22;53624;0.000;0.000;2023-05-28T09:57:11;32.30;84.90
66710;DHT22;53624;0.000;0.000;2023-05-28T09:59:39;32.30;85.00
66710;DHT22;53624;0.000;0.000;2023-05-28T10:02:10;32.30;84.90
66710;DHT22;53624;0.000;0.000;2023-05-28T10:04:42;32.30;85.10
66710;DHT22;53624;0.000;0.000;2023-05-28T10:07:11;32.30;85.20
66710;DHT22;53624;0.000;0.000;2023-05-28T10:09:39;32.30;85.10
66710;DHT22;53624;0.000;0.000;2023-05-28T10:12:09;32.30;85.20
66710;DHT22;53624;0.000;0.000;2023-05-28T10:14:37;32.30;85.20
66710;DHT22;53624;0.000;0.000;2023-05-28T10:17:06;32.20;85.20
66710;DHT22;53624;0.000;0.000;2023-05-28T10:19:34;32.20;85.30
66710;DHT22;53624;0.000;0.000;2023-05-28T10:22:02;32.20;85.40
66710;DHT22;53624;0.000;0.000;2023-05-28T10:24:30;32.20;85.30
66710;DHT22;53624;0.000;0.000;2023-05-28T10:26:58;32.30;85.40
66710;DHT22;53624;0.000;0.000;2023-05-28T10:29:28;32.20;85.40
66710;DHT22;53624;0.000;0.000;2023-05-28T10:32:04;32.20;85.40
66710;DHT22;53624;0.000;0.000;2023-05-28T10:34:32;32.20;85.30
66710;DHT22;53624;0.000;0.000;2023-05-28T10:36:59;32.30;85.40
66710;DHT22;53624;0.000;0.000;2023-05-28T10:39:27;32.30;85.40
66710;DHT22;53624;0.000;0.000;2023-05-28T10:42:03;32.30;85.50
66710;DHT22;53624;0.000;0.000;2023-05-28T10:47:15;32.30;85.40
66710;DHT22;53624;0.000;0.000;2023-05-28T10:49:57;32.30;85.60
66710;DHT22;53624;0.000;0.000;2023-05-28T10:52:25;32.30;85.60
66710;DHT22;53624;0.000;0.000;2023-05-28T10:54:52;32.40;85.80
66710;DHT22;53624;0.000;0.000;2023-05-28T10:57:20;32.40;85.70
66710;DHT22;53624;0.000;0.000;2023-05-28T10:59:48;32.40;85.80
66710;DHT22;53624;0.000;0.000;2023-05-28T11:02:18;32.50;85.70
66710;DHT22;53624;0.000;0.000;2023-05-28T11:04:47;32.50;85.80
66710;DHT22;53624;0.000;0.000;2023-05-28T11:07:17;32.50;85.70
66710;DHT22;53624;0.000;0.000;2023-05-28T11:09:47;32.60;85.60
66710;DHT22;53624;0.000;0.000;2023-05-28T11:12:14;32.60;85.60
66710;DHT22;53624;0.000;0.000;2023-05-28T11:14:42;32.60;85.50
66710;DHT22;53624;0.000;0.000;2023-05-28T11:17:09;32.60;85.40
66710;DHT22;53624;0.000;0.000;2023-05-28T11:19:40;32.60;85.40
66710;DHT22;53624;0.000;0.000;2023-05-28T11:22:08;32.60;85.50
66710;DHT22;53624;0.000;0.000;2023-05-28T11:24:51;32.60;85.40
66710;DHT22;53624;0.000;0.000;2023-05-28T11:27:20;32.70;85.50
66710;DHT22;53624;0.000;0.000;2023-05-28T11:29:47;32.60;85.30
66710;DHT22;53624;0.000;0.000;2023-05-28T11:32:17;32.70;85.40
66710;DHT22;53624;0.000;0.000;2023-05-28T11:34:47;32.70;85.20
66710;DHT22;53624;0.000;0.000;2023-05-28T11:37:14;32.70;85.10
66710;DHT22;53624;0.000;0.000;2023-05-28T11:39:51;32.70;85.10
66710;DHT22;53624;0.000;0.000;2023-05-28T11:42:19;32.80;85.10
66710;DHT22;53624;0.000;0.000;2023-05-28T11:44:47;32.80;85.00
66710;DHT22;53624;0.000;0.000;2023-05-28T11:47:14;32.80;85.00
66710;DHT22;53624;0.000;0.000;2023-05-28T11:49:42;32.80;85.10
66710;DHT22;53624;0.000;0.000;2023-05-28T11:52:11;32.90;85.20
66710;DHT22;53624;0.000;0.000;2023-05-28T11:54:39;32.90;85.10
66710;DHT22;53624;0.000;0.000;2023-05-28T11:57:08;32.90;85.00
66710;DHT22;53624;0.000;0.000;2023-05-28T11:59:35;32.90;85.20
66710;DHT22;53624;0.000;0.000;2023-05-28T12:02:09;32.90;85.20
66710;DHT22;53624;0.000;0.000;2023-05-28T12:04:37;33.00;85.20
66710;DHT22;53624;0.000;0.000;2023-05-28T12:07:05;33.10;85.20
66710;DHT22;53624;0.000;0.000;2023-05-28T12:09:34;33.10;84.40
66710;DHT22;53624;0.000;0.000;2023-05-28T12:12:02;33.20;84.90
66710;DHT22;53624;0.000;0.000;2023-05-28T12:14:30;33.20;85.20
66710;DHT22;53624;0.000;0.000;2023-05-28T12:17:04;33.20;85.10
66710;DHT22;53624;0.000;0.000;2023-05-28T12:19:31;33.20;84.90
66710;DHT22;53624;0.000;0.000;2023-05-28T12:21:59;33.10;85.50
66710;DHT22;53624;0.000;0.000;2023-05-28T12:24:27;32.90;86.10
66710;DHT22;53624;0.000;0.000;2023-05-28T12:26:56;32.70;86.50
66710;DHT22;53624;0.000;0.000;2023-05-28T12:29:24;32.60;86.90
66710;DHT22;53624;0.000;0.000;2023-05-28T12:31:57;32.40;87.20
66710;DHT22;53624;0.000;0.000;2023-05-28T12:34:25;32.30;87.60
66710;DHT22;53624;0.000;0.000;2023-05-28T12:36:53;32.20;88.00
66710;DHT22;53624;0.000;0.000;2023-05-28T12:39:20;32.00;88.20
66710;DHT22;53624;0.000;0.000;2023-05-28T12:41:48;32.00;88.50
66710;DHT22;53624;0.000;0.000;2023-05-28T12:44:17;31.90;88.80
66710;DHT22;53624;0.000;0.000;2023-05-28T12:46:44;31.70;89.00
66710;DHT22;53624;0.000;0.000;2023-05-28T12:49:12;31.70;89.20
66710;DHT22;53624;0.000;0.000;2023-05-28T12:51:40;31.60;89.50
66710;DHT22;53624;0.000;0.000;2023-05-28T12:54:07;31.50;89.70
66710;DHT22;53624;0.000;0.000;2023-05-28T12:56:35;31.40;90.00
66710;DHT22;53624;0.000;0.000;2023-05-28T12:59:02;31.30;90.10
66710;DHT22;53624;0.000;0.000;2023-05-28T13:01:31;31.20;90.20
66710;DHT22;53624;0.000;0.000;2023-05-28T13:03:58;31.20;90.20
66710;DHT22;53624;0.000;0.000;2023-05-28T13:06:26;31.10;90.30
66710;DHT22;53624;0.000;0.000;2023-05-28T13:08:53;31.10;90.40
66710;DHT22;53624;0.000;0.000;2023-05-28T13:11:21;31.00;90.50
66710;DHT22;53624;0.000;0.000;2023-05-28T13:13:49;30.90;90.50
66710;DHT22;53624;0.000;0.000;2023-05-28T13:16:16;30.90;90.60
66710;DHT22;53624;0.000;0.000;2023-05-28T13:18:45;30.80;90.60
66710;DHT22;53624;0.000;0.000;2023-05-28T13:21:13;30.70;90.70
66710;DHT22;53624;0.000;0.000;2023-05-28T13:23:40;30.60;90.80
66710;DHT22;53624;0.000;0.000;2023-05-28T13:26:08;30.50;90.80
66710;DHT22;53624;0.000;0.000;2023-05-28T13:28:35;30.50;90.90
66710;DHT22;53624;0.000;0.000;2023-05-28T13:31:03;30.40;90.90
66710;DHT22;53624;0.000;0.000;2023-05-28T13:37:08;30.30;91.10
66710;DHT22;53624;0.000;0.000;2023-05-28T13:39:35;30.20;91.20
66710;DHT22;53624;0.000;0.000;2023-05-28T13:42:03;30.10;91.20
66710;DHT22;53624;0.000;0.000;2023-05-28T13:44:31;30.10;91.30
66710;DHT22;53624;0.000;0.000;2023-05-28T13:46:59;30.00;91.30
66710;DHT22;53624;0.000;0.000;2023-05-28T13:49:27;30.00;91.40
66710;DHT22;53624;0.000;0.000;2023-05-28T13:51:55;29.90;91.40
66710;DHT22;53624;0.000;0.000;2023-05-28T13:54:24;29.90;91.50
66710;DHT22;53624;0.000;0.000;2023-05-28T13:56:51;29.80;91.50
66710;DHT22;53624;0.000;0.000;2023-05-28T13:59:18;29.80;91.50
66710;DHT22;53624;0.000;0.000;2023-05-28T14:01:46;29.70;91.50
66710;DHT22;53624;0.000;0.000;2023-05-28T14:04:13;29.70;91.50
66710;DHT22;53624;0.000;0.000;2023-05-28T14:06:41;29.70;91.60
66710;DHT22;53624;0.000;0.000;2023-05-28T14:09:08;29.60;91.60
66710;DHT22;53624;0.000;0.000;2023-05-28T14:11:37;29.60;91.60
66710;DHT22;53624;0.000;0.000;2023-05-28T14:14:04;29.60;91.60
66710;DHT22;53624;0.000;0.000;2023-05-28T14:16:32;29.60;91.60
66710;DHT22;53624;0.000;0.000;2023-05-28T14:18:59;29.70;91.50
66710;DHT22;53624;0.000;0.000;2023-05-28T14:21:27;29.70;91.40
66710;DHT22;53624;0.000;0.000;2023-05-28T14:23:54;29.80;91.30
66710;DHT22;53624;0.000;0.000;2023-05-28T14:26:21;29.90;91.20
66710;DHT22;53624;0.000;0.000;2023-05-28T14:28:50;29.90;91.10
66710;DHT22;53624;0.000;0.000;2023-05-28T14:31:18;29.90;91.20
66710;DHT22;53624;0.000;0.000;2023-05-28T14:33:45;29.90;91.10
66710;DHT22;53624;0.000;0.000;2023-05-28T14:36:13;30.00;90.90
66710;DHT22;53624;0.000;0.000;2023-05-28T14:38:40;30.10;91.00
66710;DHT22;53624;0.000;0.000;2023-05-28T14:41:07;30.20;90.30
66710;DHT22;53624;0.000;0.000;2023-05-28T14:43:35;30.30;90.30
66710;DHT22;53624;0.000;0.000;2023-05-28T14:46:04;30.30;90.30
66710;DHT22;53624;0.000;0.000;2023-05-28T14:48:32;30.30;90.50
66710;DHT22;53624;0.000;0.000;2023-05-28T14:50:59;30.20;90.80
66710;DHT22;53624;0.000;0.000;2023-05-28T14:53:27;30.20;91.30
66710;DHT22;53624;0.000;0.000;2023-05-28T14:55:54;30.10;91.00
66710;DHT22;53624;0.000;0.000;2023-05-28T14:58:22;30.10;91.00
66710;DHT22;53624;0.000;0.000;2023-05-28T15:00:50;30.20;91.00
66710;DHT22;53624;0.000;0.000;2023-05-28T15:03:19;30.30;90.60
66710;DHT22;53624;0.000;0.000;2023-05-28T15:05:46;30.30;90.20
66710;DHT22;53624;0.000;0.000;2023-05-28T15:08:16;30.40;90.10
66710;DHT22;53624;0.000;0.000;2023-05-28T15:10:43;30.50;90.00
66710;DHT22;53624;0.000;0.000;2023-05-28T15:13:11;30.50;90.10
66710;DHT22;53624;0.000;0.000;2023-05-28T15:15:38;30.50;89.80
66710;DHT22;53624;0.000;0.000;2023-05-28T15:18:07;30.50;90.20
66710;DHT22;53624;0.000;0.000;2023-05-28T15:20:36;30.40;90.10
66710;DHT22;53624;0.000;0.000;2023-05-28T15:23:03;30.30;90.50
66710;DHT22;53624;0.000;0.000;2023-05-28T15:25:31;30.30;90.70
66710;DHT22;53624;0.000;0.000;2023-05-28T15:27:59;30.20;90.80
66710;DHT22;53624;0.000;0.000;2023-05-28T15:30:26;30.10;90.90
66710;DHT22;53624;0.000;0.000;2023-05-28T15:32:55;30.10;91.00
66710;DHT22;53624;0.000;0.000;2023-05-28T15:35:24;30.00;91.00
66710;DHT22;53624;0.000;0.000;2023-05-28T15:37:53;29.90;91.20
66710;DHT22;53624;0.000;0.000;2023-05-28T15:40:20;29.80;91.20
66710;DHT22;53624;0.000;0.000;2023-05-28T15:42:48;29.80;91.30
66710;DHT22;53624;0.000;0.000;2023-05-28T15:45:17;29.70;91.30
66710;DHT22;53624;0.000;0.000;2023-05-28T15:47:45;29.70;91.40
66710;DHT22;53624;0.000;0.000;2023-05-28T15:50:14;29.60;91.40
66710;DHT22;53624;0.000;0.000;2023-05-28T15:52:41;29.60;91.40
66710;DHT22;53624;0.000;0.000;2023-05-28T15:55:11;29.50;91.50
66710;DHT22;53624;0.000;0.000;2023-05-28T15:57:38;29.50;91.50
66710;DHT22;53624;0.000;0.000;2023-05-28T16:00:07;29.40;91.60
66710;DHT22;53624;0.000;0.000;2023-05-28T16:02:36;29.30;91.70
66710;DHT22;53624;0.000;0.000;2023-05-28T16:05:04;29.30;91.80